Terminal Aerodrome Forecast
Issued by NWS

Home | Current Version | Previous Version | Text Only | Print | Product List | Glossary On
Versions: 1 2 3 4 5 6 7 8 9 10 11 12 13 14 15 16 17
000
FTUS42 KMHX 152300
TAFISO
TAF
KISO 152336Z 1600/1624 23015G25KT 3SM -RA SCT008 OVC015
      TEMPO 1600/1601 2SM -RA
     FM160300 34015G25KT P6SM VCSH BKN020
     FM160600 36015G25KT P6SM SKC
     FM161800 04015G20KT P6SM SKC
      AMD LTD TO CLD VIS AND WIND=

USA.gov is the U.S. government's official web portal to all federal, state and local government web resources and services.